Time;durP1;ratioP1;P1;durP2;ratioP2;P2;SDS_P1;SDS_P2;PMS_P1;PMS_P2;Temp;Humidity;BMP_temperature;BMP_pressure;BME280_temperature;BME280_humidity;BME280_pressure;Samples;Min_cycle;Max_cycle;Signal;HPM_P1;HPM_P2
2023/05/30 00:00:13;;;;;;;16.55;3.30;;;;;;;;;;5035701;28;20072;-43
2023/05/30 00:02:40;;;;;;;13.93;2.57;;;;;;;;;;5033336;28;20072;-41
2023/05/30 00:05:07;;;;;;;9.90;2.30;;;;;;;;;;5032251;28;20558;-42
2023/05/30 00:07:34;;;;;;;13.98;2.40;;;;;;;;;;5028350;28;20030;-41
2023/05/30 00:10:01;;;;;;;15.40;2.30;;;;;;;;;;5029336;28;20036;-42
2023/05/30 00:12:28;;;;;;;10.70;2.67;;;;;;;;;;5032534;28;20045;-42
2023/05/30 00:14:55;;;;;;;24.52;3.10;;;;;;;;;;5032662;28;20547;-42
2023/05/30 00:17:23;;;;;;;19.65;3.42;;;;;;;;;;5033040;28;20037;-41
2023/05/30 00:19:52;;;;;;;19.75;2.92;;;;;;;;;;5033146;28;20030;-41
2023/05/30 00:22:19;;;;;;;20.98;3.35;;;;;;;;;;5032754;28;20034;-41
2023/05/30 00:24:49;;;;;;;19.08;3.65;;;;;;;;;;5032663;28;20148;-41
2023/05/30 00:27:17;;;;;;;19.75;3.42;;;;;;;;;;5032498;28;20052;-41
2023/05/30 00:29:45;;;;;;;25.25;3.85;;;;;;;;;;5032394;28;20112;-41
2023/05/30 00:32:13;;;;;;;18.83;3.30;;;;;;;;;;5032080;28;20055;-41
2023/05/30 00:34:40;;;;;;;18.00;3.03;;;;;;;;;;5032494;28;20128;-41
2023/05/30 00:37:08;;;;;;;18.13;3.20;;;;;;;;;;5032575;28;20036;-41
2023/05/30 00:39:36;;;;;;;25.80;3.17;;;;;;;;;;5031140;28;20032;-41
2023/05/30 00:42:04;;;;;;;15.50;3.38;;;;;;;;;;5033079;28;20025;-41
2023/05/30 00:44:31;;;;;;;20.60;3.20;;;;;;;;;;5032673;28;20041;-42
2023/05/30 00:46:58;;;;;;;19.92;3.78;;;;;;;;;;5033105;28;20139;-41
2023/05/30 00:49:25;;;;;;;24.70;5.47;;;;;;;;;;5032716;28;20026;-41
2023/05/30 00:51:52;;;;;;;49.83;14.77;;;;;;;;;;5032790;28;20826;-40
2023/05/30 00:54:20;;;;;;;46.30;16.95;;;;;;;;;;5014738;28;20037;-42
2023/05/30 00:56:48;;;;;;;52.72;22.02;;;;;;;;;;5032760;28;20582;-43
2023/05/30 00:59:15;;;;;;;42.15;20.42;;;;;;;;;;5032104;28;20461;-41
2023/05/30 01:01:45;;;;;;;49.72;22.13;;;;;;;;;;5032067;28;20057;-41
2023/05/30 01:04:12;;;;;;;67.45;24.15;;;;;;;;;;5032026;28;20037;-42
2023/05/30 01:06:39;;;;;;;72.93;29.65;;;;;;;;;;5031525;28;20048;-41
2023/05/30 01:09:07;;;;;;;85.70;34.83;;;;;;;;;;5031720;28;20387;-42
2023/05/30 01:11:42;;;;;;;88.53;39.38;;;;;;;;;;5032288;28;20037;-43
2023/05/30 01:14:12;;;;;;;100.72;44.55;;;;;;;;;;5032027;28;20119;-43
2023/05/30 01:16:44;;;;;;;109.85;47.13;;;;;;;;;;5026998;28;20484;-43
2023/05/30 01:19:30;;;;;;;125.88;51.92;;;;;;;;;;5027420;28;20038;-42
2023/05/30 01:22:16;;;;;;;121.40;51.15;;;;;;;;;;5027516;28;20041;-43
2023/05/30 01:24:46;;;;;;;126.43;53.05;;;;;;;;;;5019332;28;20034;-43
2023/05/30 01:27:26;;;;;;;130.95;52.88;;;;;;;;;;5030285;28;20522;-43
2023/05/30 01:29:55;;;;;;;121.82;51.95;;;;;;;;;;5018283;28;20495;-43
2023/05/30 01:32:23;;;;;;;111.30;49.03;;;;;;;;;;5031002;28;20449;-43
2023/05/30 01:34:50;;;;;;;113.80;46.65;;;;;;;;;;5031316;28;20044;-43
2023/05/30 01:37:17;;;;;;;108.57;48.03;;;;;;;;;;5031444;28;20091;-42
2023/05/30 01:39:44;;;;;;;102.85;45.63;;;;;;;;;;5013633;28;20040;-42
2023/05/30 01:42:11;;;;;;;103.80;46.63;;;;;;;;;;5032007;28;20021;-42
2023/05/30 01:44:48;;;;;;;96.20;43.72;;;;;;;;;;5031656;28;20033;-42
2023/05/30 01:47:21;;;;;;;93.45;42.60;;;;;;;;;;5031736;28;20040;-42
2023/05/30 01:49:58;;;;;;;100.10;42.75;;;;;;;;;;5031720;28;20041;-43
2023/05/30 01:52:29;;;;;;;107.35;43.53;;;;;;;;;;5031546;28;20083;-43
2023/05/30 01:54:58;;;;;;;84.65;39.67;;;;;;;;;;5013983;28;20445;-43
2023/05/30 01:57:26;;;;;;;87.20;39.50;;;;;;;;;;5031412;28;20037;-42
2023/05/30 01:59:54;;;;;;;87.53;38.10;;;;;;;;;;5031368;28;20475;-44
2023/05/30 02:02:21;;;;;;;100.35;39.10;;;;;;;;;;5031287;28;20057;-43
2023/05/30 02:04:48;;;;;;;89.07;37.97;;;;;;;;;;5031392;28;20033;-43
2023/05/30 02:07:15;;;;;;;82.30;36.22;;;;;;;;;;5031593;28;20820;-43
2023/05/30 02:09:43;;;;;;;83.18;36.15;;;;;;;;;;5031126;28;20044;-43
2023/05/30 02:12:10;;;;;;;75.13;34.42;;;;;;;;;;5031440;28;20066;-42
2023/05/30 02:14:37;;;;;;;71.75;33.45;;;;;;;;;;5031485;28;20084;-42
2023/05/30 02:17:05;;;;;;;74.07;33.33;;;;;;;;;;5012777;28;20037;-42
2023/05/30 02:19:32;;;;;;;73.05;33.05;;;;;;;;;;5031299;28;20033;-42
2023/05/30 02:21:59;;;;;;;75.28;32.05;;;;;;;;;;5031289;28;20037;-43
2023/05/30 02:24:26;;;;;;;72.68;31.67;;;;;;;;;;5031468;28;20036;-42
2023/05/30 02:26:53;;;;;;;70.25;32.00;;;;;;;;;;5031084;28;20030;-42
2023/05/30 02:29:20;;;;;;;63.58;29.60;;;;;;;;;;5033247;28;20724;-42
2023/05/30 02:31:47;;;;;;;68.75;29.38;;;;;;;;;;5031177;28;20037;-42
2023/05/30 02:34:15;;;;;;;66.57;28.23;;;;;;;;;;5031224;28;20029;-42
2023/05/30 02:36:42;;;;;;;59.35;28.63;;;;;;;;;;5031043;28;20026;-42
2023/05/30 02:39:09;;;;;;;61.40;27.10;;;;;;;;;;5037953;28;20025;-42
2023/05/30 02:41:39;;;;;;;63.13;27.65;;;;;;;;;;5039856;28;20483;-43
2023/05/30 02:44:06;;;;;;;60.85;27.08;;;;;;;;;;5037861;28;20033;-42
2023/05/30 02:46:34;;;;;;;55.28;26.13;;;;;;;;;;5040345;28;20029;-42
2023/05/30 02:49:01;;;;;;;52.88;26.65;;;;;;;;;;5041642;28;20029;-43
2023/05/30 02:51:28;;;;;;;59.30;26.05;;;;;;;;;;5040462;28;20483;-43
2023/05/30 02:53:55;;;;;;;56.28;26.50;;;;;;;;;;5040124;28;20659;-43
2023/05/30 02:56:25;;;;;;;55.70;25.25;;;;;;;;;;5045470;28;20037;-43
2023/05/30 02:58:54;;;;;;;54.17;24.23;;;;;;;;;;5051232;28;20483;-43
2023/05/30 03:01:21;;;;;;;50.72;23.83;;;;;;;;;;5051124;28;20094;-42
2023/05/30 03:03:48;;;;;;;51.42;23.38;;;;;;;;;;5051276;28;20017;-42
2023/05/30 03:06:15;;;;;;;52.13;23.38;;;;;;;;;;5051196;28;20028;-42
2023/05/30 03:08:42;;;;;;;47.67;22.23;;;;;;;;;;5050886;28;20033;-42
2023/05/30 03:11:10;;;;;;;46.53;22.65;;;;;;;;;;5051067;28;20044;-42
2023/05/30 03:13:37;;;;;;;46.08;22.17;;;;;;;;;;5053593;28;20038;-42
2023/05/30 03:16:05;;;;;;;48.92;22.02;;;;;;;;;;5054986;28;20044;-42
2023/05/30 03:18:32;;;;;;;44.17;21.10;;;;;;;;;;5054889;28;20063;-42
2023/05/30 03:20:59;;;;;;;45.45;20.95;;;;;;;;;;5054993;28;20060;-42
2023/05/30 03:23:26;;;;;;;41.03;19.73;;;;;;;;;;5054680;28;20747;-43
2023/05/30 03:25:54;;;;;;;41.63;19.52;;;;;;;;;;5054841;28;20096;-42
2023/05/30 03:28:21;;;;;;;42.78;19.67;;;;;;;;;;5036828;28;20438;-42
2023/05/30 03:30:48;;;;;;;39.33;18.50;;;;;;;;;;5054557;28;20048;-42
2023/05/30 03:33:15;;;;;;;36.42;18.25;;;;;;;;;;5054487;28;20133;-42
2023/05/30 03:35:43;;;;;;;38.45;18.60;;;;;;;;;;5054595;28;20035;-42
2023/05/30 03:38:10;;;;;;;40.28;18.85;;;;;;;;;;5054441;28;20037;-43
2023/05/30 03:40:37;;;;;;;37.80;18.30;;;;;;;;;;5054449;28;20047;-43
2023/05/30 03:43:04;;;;;;;39.25;17.83;;;;;;;;;;5054555;28;20033;-42
2023/05/30 03:45:31;;;;;;;36.83;17.98;;;;;;;;;;5054241;28;20036;-42
2023/05/30 03:47:59;;;;;;;35.65;18.00;;;;;;;;;;5054296;28;20100;-42
2023/05/30 03:50:26;;;;;;;37.17;17.40;;;;;;;;;;5054240;28;20051;-44
2023/05/30 03:52:53;;;;;;;37.78;17.20;;;;;;;;;;5054236;28;20036;-43
2023/05/30 03:55:20;;;;;;;33.80;16.60;;;;;;;;;;5054249;28;20036;-42
2023/05/30 03:57:47;;;;;;;30.73;16.35;;;;;;;;;;5054292;28;20055;-42
2023/05/30 04:00:15;;;;;;;34.70;17.05;;;;;;;;;;5054124;28;20044;-42
2023/05/30 04:02:42;;;;;;;29.90;15.27;;;;;;;;;;5054146;28;20036;-42
2023/05/30 04:05:09;;;;;;;32.28;15.80;;;;;;;;;;5054127;28;20609;-43
2023/05/30 04:07:36;;;;;;;32.35;15.88;;;;;;;;;;5054031;28;20029;-42
2023/05/30 04:10:04;;;;;;;32.72;15.35;;;;;;;;;;5053767;28;20094;-42
2023/05/30 04:12:31;;;;;;;31.85;15.73;;;;;;;;;;5053998;28;20025;-42
2023/05/30 04:14:58;;;;;;;32.28;14.10;;;;;;;;;;5053817;28;20032;-44
2023/05/30 04:17:25;;;;;;;30.45;14.57;;;;;;;;;;5053882;28;20061;-42
2023/05/30 04:19:52;;;;;;;24.35;13.15;;;;;;;;;;5053747;28;20502;-42
2023/05/30 04:22:19;;;;;;;28.08;14.18;;;;;;;;;;5053812;28;20491;-42
2023/05/30 04:24:46;;;;;;;26.25;14.15;;;;;;;;;;5053381;28;20021;-42
2023/05/30 04:27:17;;;;;;;28.15;13.90;;;;;;;;;;5053524;28;20056;-42
2023/05/30 04:29:46;;;;;;;26.50;13.35;;;;;;;;;;5053579;28;20127;-43
2023/05/30 04:32:13;;;;;;;26.33;13.43;;;;;;;;;;5053225;28;20048;-42
2023/05/30 04:34:41;;;;;;;28.27;13.48;;;;;;;;;;5053565;28;20071;-43
2023/05/30 04:37:08;;;;;;;27.48;13.85;;;;;;;;;;5053512;28;20025;-42
2023/05/30 04:39:35;;;;;;;24.95;13.40;;;;;;;;;;5053270;28;20473;-43
2023/05/30 04:42:04;;;;;;;23.92;12.40;;;;;;;;;;5053484;28;20059;-43
2023/05/30 04:44:38;;;;;;;24.40;12.50;;;;;;;;;;5053239;28;20394;-42
2023/05/30 04:47:08;;;;;;;26.23;12.82;;;;;;;;;;5053130;28;20082;-42
2023/05/30 04:49:39;;;;;;;23.70;12.15;;;;;;;;;;5053189;28;20074;-42
2023/05/30 04:52:07;;;;;;;26.20;11.43;;;;;;;;;;5052974;28;20459;-42
2023/05/30 04:54:34;;;;;;;24.67;12.30;;;;;;;;;;5053230;28;20021;-43
2023/05/30 04:57:02;;;;;;;22.60;11.82;;;;;;;;;;5053129;28;20096;-42
2023/05/30 04:59:29;;;;;;;24.05;11.45;;;;;;;;;;5052760;28;20041;-44
2023/05/30 05:01:57;;;;;;;22.80;11.63;;;;;;;;;;5053084;28;20497;-43
2023/05/30 05:04:24;;;;;;;21.48;11.00;;;;;;;;;;5052914;28;20075;-42
2023/05/30 05:06:51;;;;;;;21.48;11.43;;;;;;;;;;5052814;28;20074;-42
2023/05/30 05:09:20;;;;;;;21.25;11.30;;;;;;;;;;5052810;28;20017;-43
2023/05/30 05:11:47;;;;;;;20.60;10.73;;;;;;;;;;5052925;28;20108;-43
2023/05/30 05:14:14;;;;;;;23.88;10.88;;;;;;;;;;5052798;28;20032;-43
2023/05/30 05:16:42;;;;;;;22.67;10.52;;;;;;;;;;5052749;28;20494;-42
2023/05/30 05:19:09;;;;;;;17.98;9.93;;;;;;;;;;5052555;28;20029;-42
2023/05/30 05:21:36;;;;;;;19.52;10.25;;;;;;;;;;5052868;28;20056;-43
2023/05/30 05:24:04;;;;;;;17.98;9.75;;;;;;;;;;5052412;28;20029;-43
2023/05/30 05:26:31;;;;;;;21.55;10.43;;;;;;;;;;5052622;28;20021;-42
2023/05/30 05:28:58;;;;;;;16.58;9.55;;;;;;;;;;5052206;28;20115;-42
2023/05/30 05:31:25;;;;;;;17.20;8.93;;;;;;;;;;5052311;28;20036;-45
2023/05/30 05:33:52;;;;;;;16.80;9.35;;;;;;;;;;5052165;28;20127;-42
2023/05/30 05:36:20;;;;;;;18.10;9.65;;;;;;;;;;5051683;28;20106;-42
2023/05/30 05:38:47;;;;;;;17.50;9.38;;;;;;;;;;5052044;28;20029;-43
2023/05/30 05:41:15;;;;;;;16.58;8.70;;;;;;;;;;5052296;28;20075;-43
2023/05/30 05:43:42;;;;;;;18.42;9.32;;;;;;;;;;5052073;28;20090;-43
2023/05/30 05:46:09;;;;;;;16.50;8.90;;;;;;;;;;5052262;28;20079;-44
2023/05/30 05:48:37;;;;;;;18.20;9.02;;;;;;;;;;5052043;28;20029;-43
2023/05/30 05:51:04;;;;;;;16.92;9.32;;;;;;;;;;5052015;28;20036;-42
2023/05/30 05:53:31;;;;;;;16.30;8.77;;;;;;;;;;5052037;28;20021;-42
2023/05/30 05:56:00;;;;;;;15.57;8.27;;;;;;;;;;5052015;28;20076;-42
2023/05/30 05:58:27;;;;;;;17.88;8.13;;;;;;;;;;5051801;28;20446;-43
2023/05/30 06:00:54;;;;;;;16.83;8.60;;;;;;;;;;5048717;28;20033;-43
2023/05/30 06:03:21;;;;;;;14.63;7.68;;;;;;;;;;5031672;28;20029;-43
2023/05/30 06:05:48;;;;;;;15.68;8.10;;;;;;;;;;5031840;28;20383;-43
2023/05/30 06:08:15;;;;;;;14.73;7.85;;;;;;;;;;5031784;28;20438;-43
2023/05/30 06:10:42;;;;;;;13.18;8.13;;;;;;;;;;5031747;28;20103;-42
2023/05/30 06:13:10;;;;;;;14.43;7.85;;;;;;;;;;5031806;28;20021;-43
2023/05/30 06:15:37;;;;;;;13.60;7.65;;;;;;;;;;5031887;28;20030;-44
2023/05/30 06:18:04;;;;;;;14.45;7.40;;;;;;;;;;5031785;28;20032;-43
2023/05/30 06:20:31;;;;;;;16.25;7.65;;;;;;;;;;5031538;28;20770;-43
2023/05/30 06:22:58;;;;;;;13.90;7.63;;;;;;;;;;5031766;28;20499;-43
2023/05/30 06:25:30;;;;;;;13.15;7.57;;;;;;;;;;5031558;28;20024;-42
2023/05/30 06:27:57;;;;;;;12.13;7.57;;;;;;;;;;5031519;28;20031;-43
2023/05/30 06:30:24;;;;;;;12.63;7.47;;;;;;;;;;5031461;28;20032;-43
2023/05/30 06:32:51;;;;;;;12.63;7.15;;;;;;;;;;5169761;23;20054;-43
2023/05/30 06:35:18;;;;;;;12.68;6.78;;;;;;;;;;5026362;28;20075;-40
2023/05/30 06:37:46;;;;;;;13.55;7.13;;;;;;;;;;5031609;28;20447;-40
2023/05/30 06:40:13;;;;;;;13.27;7.22;;;;;;;;;;5031538;28;20450;-40
2023/05/30 06:42:40;;;;;;;11.10;6.85;;;;;;;;;;5031376;28;20025;-42
2023/05/30 06:45:07;;;;;;;13.45;6.95;;;;;;;;;;5031625;28;20017;-40
2023/05/30 06:47:34;;;;;;;12.35;6.32;;;;;;;;;;5034041;28;20144;-40
2023/05/30 06:50:01;;;;;;;12.25;6.68;;;;;;;;;;5035562;28;20105;-40
2023/05/30 06:52:28;;;;;;;11.68;6.28;;;;;;;;;;5035598;28;20079;-40
2023/05/30 06:54:55;;;;;;;11.70;6.75;;;;;;;;;;5035317;28;20033;-40
2023/05/30 06:57:22;;;;;;;8.60;5.68;;;;;;;;;;5035388;28;20083;-40
2023/05/30 06:59:49;;;;;;;12.70;6.43;;;;;;;;;;5035425;28;20033;-41
2023/05/30 07:02:16;;;;;;;12.43;6.85;;;;;;;;;;5035266;28;20033;-41
2023/05/30 07:04:43;;;;;;;10.65;6.15;;;;;;;;;;5035373;28;20021;-42
2023/05/30 07:07:10;;;;;;;12.00;6.22;;;;;;;;;;5035329;28;20040;-41
2023/05/30 07:09:37;;;;;;;7.85;5.57;;;;;;;;;;5035286;28;20032;-41
2023/05/30 07:12:04;;;;;;;11.60;5.93;;;;;;;;;;5034681;28;20403;-44
2023/05/30 07:14:31;;;;;;;10.85;6.05;;;;;;;;;;5035162;28;20032;-43
2023/05/30 07:16:58;;;;;;;10.20;5.40;;;;;;;;;;5035059;28;20093;-43
2023/05/30 07:19:25;;;;;;;10.02;5.80;;;;;;;;;;5034989;28;20053;-43
2023/05/30 07:21:52;;;;;;;8.82;5.57;;;;;;;;;;5034795;28;20037;-40
2023/05/30 07:24:20;;;;;;;9.32;5.35;;;;;;;;;;5034950;28;20467;-41
2023/05/30 07:26:49;;;;;;;10.93;5.60;;;;;;;;;;5034967;28;20018;-41
2023/05/30 07:29:16;;;;;;;8.90;5.47;;;;;;;;;;5034730;28;20038;-41
2023/05/30 07:31:43;;;;;;;8.82;4.93;;;;;;;;;;5034550;28;20075;-42
2023/05/30 07:34:10;;;;;;;9.65;5.43;;;;;;;;;;5034793;28;20036;-41
2023/05/30 07:36:37;;;;;;;10.90;5.70;;;;;;;;;;5034455;28;20116;-43
2023/05/30 07:39:04;;;;;;;8.32;4.90;;;;;;;;;;5016434;28;20498;-40
2023/05/30 07:41:31;;;;;;;9.40;5.53;;;;;;;;;;5014808;28;20033;-40
2023/05/30 07:43:58;;;;;;;9.32;5.30;;;;;;;;;;5014903;28;20049;-41
2023/05/30 07:46:25;;;;;;;8.95;4.97;;;;;;;;;;5014842;28;20480;-40
2023/05/30 07:48:52;;;;;;;8.75;4.80;;;;;;;;;;5014774;28;20030;-42
2023/05/30 07:51:20;;;;;;;7.82;4.63;;;;;;;;;;5014519;28;20087;-41
2023/05/30 07:53:47;;;;;;;8.38;4.80;;;;;;;;;;5014773;28;20026;-42
2023/05/30 07:56:14;;;;;;;6.85;4.50;;;;;;;;;;5014664;28;20029;-41
2023/05/30 07:58:41;;;;;;;7.78;4.40;;;;;;;;;;5013819;28;20025;-41
2023/05/30 08:01:08;;;;;;;8.95;4.90;;;;;;;;;;4997057;28;20042;-41
2023/05/30 08:03:35;;;;;;;7.53;4.65;;;;;;;;;;5014445;28;20018;-43
2023/05/30 08:06:02;;;;;;;7.15;4.25;;;;;;;;;;5014393;28;20160;-42
2023/05/30 08:08:29;;;;;;;7.38;4.43;;;;;;;;;;5014422;28;20057;-41
2023/05/30 08:10:56;;;;;;;8.73;4.60;;;;;;;;;;5014237;28;20026;-41
2023/05/30 08:13:26;;;;;;;8.85;4.57;;;;;;;;;;5014192;28;20046;-41
2023/05/30 08:15:54;;;;;;;7.90;4.45;;;;;;;;;;5014398;28;20037;-40
2023/05/30 08:18:22;;;;;;;7.68;4.10;;;;;;;;;;5014013;28;20060;-40
2023/05/30 08:20:54;;;;;;;8.40;4.07;;;;;;;;;;5014230;28;20026;-41
2023/05/30 08:23:21;;;;;;;6.85;4.38;;;;;;;;;;5013802;28;20033;-40
2023/05/30 08:25:48;;;;;;;5.88;3.83;;;;;;;;;;5013976;28;20080;-40
2023/05/30 08:28:15;;;;;;;8.88;3.63;;;;;;;;;;5013927;28;20022;-40
2023/05/30 08:30:48;;;;;;;7.63;3.80;;;;;;;;;;5013980;28;20048;-40
2023/05/30 08:33:22;;;;;;;6.82;3.85;;;;;;;;;;5013483;28;20070;-41
2023/05/30 08:35:49;;;;;;;8.43;4.28;;;;;;;;;;5013803;28;20022;-42
2023/05/30 08:38:16;;;;;;;8.23;4.28;;;;;;;;;;5013509;28;20026;-41
2023/05/30 08:40:44;;;;;;;5.85;3.45;;;;;;;;;;5013871;28;20026;-41
2023/05/30 08:43:11;;;;;;;5.63;3.70;;;;;;;;;;5013638;28;20101;-41
2023/05/30 08:45:38;;;;;;;5.53;3.65;;;;;;;;;;5013556;28;20491;-43
2023/05/30 08:48:06;;;;;;;5.20;3.50;;;;;;;;;;5013597;28;20033;-41
2023/05/30 08:50:35;;;;;;;5.05;3.20;;;;;;;;;;5013603;28;20030;-41
2023/05/30 08:53:09;;;;;;;8.05;3.83;;;;;;;;;;5013529;28;20037;-40
2023/05/30 08:55:39;;;;;;;7.43;3.60;;;;;;;;;;5013477;28;20030;-42
2023/05/30 08:58:08;;;;;;;6.35;3.60;;;;;;;;;;5013287;28;20029;-43
2023/05/30 09:00:36;;;;;;;5.38;3.33;;;;;;;;;;5013234;28;20041;-43
2023/05/30 09:03:05;;;;;;;5.32;3.53;;;;;;;;;;5013349;28;20021;-44
2023/05/30 09:05:36;;;;;;;6.78;3.47;;;;;;;;;;5013556;28;20084;-44
2023/05/30 09:08:03;;;;;;;5.18;3.20;;;;;;;;;;5013306;28;20026;-43
2023/05/30 09:10:32;;;;;;;7.00;3.58;;;;;;;;;;5011900;28;20034;-43
2023/05/30 09:12:59;;;;;;;6.00;3.35;;;;;;;;;;5013036;28;20061;-43
2023/05/30 09:15:26;;;;;;;4.90;3.10;;;;;;;;;;5013221;28;20026;-44
2023/05/30 09:17:54;;;;;;;5.10;3.08;;;;;;;;;;5013180;28;20028;-46
2023/05/30 09:20:21;;;;;;;5.07;2.75;;;;;;;;;;5013033;28;20018;-44
2023/05/30 09:22:48;;;;;;;4.40;2.95;;;;;;;;;;5012939;28;20838;-43
2023/05/30 09:25:15;;;;;;;4.25;2.88;;;;;;;;;;5012220;28;20083;-41
2023/05/30 09:27:46;;;;;;;6.13;3.00;;;;;;;;;;5012754;28;20026;-43
2023/05/30 09:30:14;;;;;;;5.07;2.80;;;;;;;;;;5012785;28;20381;-44
2023/05/30 09:32:41;;;;;;;6.72;3.13;;;;;;;;;;5011943;28;20045;-42
2023/05/30 09:35:12;;;;;;;4.63;3.08;;;;;;;;;;5008197;28;20033;-44
2023/05/30 09:37:43;;;;;;;4.50;2.97;;;;;;;;;;4999456;28;20034;-43
2023/05/30 09:40:12;;;;;;;6.68;2.80;;;;;;;;;;5000486;28;20472;-43
2023/05/30 09:42:50;;;;;;;6.07;2.80;;;;;;;;;;5002522;28;20472;-43
2023/05/30 09:45:19;;;;;;;3.97;2.40;;;;;;;;;;5002722;28;20030;-43
2023/05/30 09:47:47;;;;;;;7.07;2.85;;;;;;;;;;5004029;28;20578;-45
2023/05/30 09:50:15;;;;;;;6.20;2.90;;;;;;;;;;5012373;28;20030;-43
2023/05/30 09:52:42;;;;;;;7.85;2.80;;;;;;;;;;5012450;28;20471;-45
2023/05/30 09:55:10;;;;;;;6.63;2.78;;;;;;;;;;5012557;28;20017;-44
2023/05/30 09:57:38;;;;;;;4.55;2.70;;;;;;;;;;5012443;28;20018;-43
2023/05/30 10:00:09;;;;;;;6.53;2.72;;;;;;;;;;5012383;28;20097;-45
2023/05/30 10:02:37;;;;;;;8.00;3.00;;;;;;;;;;5012164;28;20128;-44
2023/05/30 10:05:04;;;;;;;6.85;2.47;;;;;;;;;;5012374;28;20022;-43
2023/05/30 10:07:32;;;;;;;7.30;2.42;;;;;;;;;;5012339;28;20030;-45
2023/05/30 10:10:00;;;;;;;4.85;2.30;;;;;;;;;;5011566;28;20037;-41
2023/05/30 10:12:27;;;;;;;6.93;2.30;;;;;;;;;;5008628;28;20025;-42
2023/05/30 10:14:54;;;;;;;8.95;2.40;;;;;;;;;;5012208;28;20033;-40
2023/05/30 10:17:23;;;;;;;8.38;3.00;;;;;;;;;;5008058;28;20022;-42
2023/05/30 10:20:00;;;;;;;5.10;2.25;;;;;;;;;;5007339;28;20030;-44
2023/05/30 10:22:30;;;;;;;5.00;2.33;;;;;;;;;;5010873;28;20026;-41
2023/05/30 10:24:59;;;;;;;5.60;2.80;;;;;;;;;;5011170;28;20105;-42
2023/05/30 10:27:31;;;;;;;7.90;2.47;;;;;;;;;;5011636;28;20029;-43
2023/05/30 10:30:03;;;;;;;4.38;2.25;;;;;;;;;;5011688;28;20034;-43
2023/05/30 10:32:32;;;;;;;5.03;2.15;;;;;;;;;;5011069;28;20057;-41
2023/05/30 10:35:06;;;;;;;8.70;2.30;;;;;;;;;;5011256;28;20050;-41
2023/05/30 10:37:35;;;;;;;6.80;2.50;;;;;;;;;;5011460;28;20092;-41
2023/05/30 10:40:06;;;;;;;16.00;2.72;;;;;;;;;;5011238;28;20479;-40
2023/05/30 10:42:39;;;;;;;4.30;2.40;;;;;;;;;;5011246;28;20037;-40
2023/05/30 10:45:06;;;;;;;4.70;2.38;;;;;;;;;;4994006;28;20406;-44
2023/05/30 10:47:45;;;;;;;3.75;2.13;;;;;;;;;;5011800;28;20076;-40
2023/05/30 10:50:19;;;;;;;2.85;1.85;;;;;;;;;;5011789;28;20101;-40
2023/05/30 10:52:47;;;;;;;4.68;2.13;;;;;;;;;;5011511;28;20029;-40
2023/05/30 10:55:15;;;;;;;5.40;2.15;;;;;;;;;;5011699;28;20049;-40
2023/05/30 10:57:42;;;;;;;4.30;2.00;;;;;;;;;;5011556;28;20030;-40
2023/05/30 11:00:20;;;;;;;2.70;1.67;;;;;;;;;;5011694;28;20045;-40
2023/05/30 11:02:54;;;;;;;3.28;1.90;;;;;;;;;;5011598;28;20022;-40
2023/05/30 11:05:30;;;;;;;4.82;2.20;;;;;;;;;;5010740;28;20075;-40
2023/05/30 11:08:01;;;;;;;3.95;2.10;;;;;;;;;;5007428;28;20117;-41
2023/05/30 11:10:31;;;;;;;5.00;2.10;;;;;;;;;;5010948;28;20028;-40
2023/05/30 11:13:11;;;;;;;4.22;2.28;;;;;;;;;;5011064;28;20420;-45
2023/05/30 11:15:43;;;;;;;5.03;2.08;;;;;;;;;;5011242;28;20129;-44
2023/05/30 11:18:17;;;;;;;5.85;2.13;;;;;;;;;;5011404;28;20033;-43
2023/05/30 11:20:54;;;;;;;4.18;2.00;;;;;;;;;;5011303;28;20029;-40
2023/05/30 11:23:23;;;;;;;7.95;2.10;;;;;;;;;;5010974;28;20022;-42
2023/05/30 11:25:53;;;;;;;7.07;1.80;;;;;;;;;;5011317;28;20104;-47
2023/05/30 11:28:34;;;;;;;69.72;4.60;;;;;;;;;;5006722;28;20152;-39
2023/05/30 11:31:15;;;;;;;85.97;4.53;;;;;;;;;;4988304;28;20034;-43
2023/05/30 11:33:43;;;;;;;383.70;19.88;;;;;;;;;;4991127;28;20058;-40
2023/05/30 11:36:12;;;;;;;138.60;7.07;;;;;;;;;;4994839;28;20038;-40
2023/05/30 11:38:44;;;;;;;88.80;5.10;;;;;;;;;;4994726;28;20042;-41
2023/05/30 11:41:15;;;;;;;62.67;4.60;;;;;;;;;;4992763;28;20488;-41
2023/05/30 11:43:43;;;;;;;46.83;4.68;;;;;;;;;;4994263;28;20030;-44
2023/05/30 11:46:11;;;;;;;41.08;5.18;;;;;;;;;;4994465;28;20034;-43
2023/05/30 11:48:38;;;;;;;35.30;4.43;;;;;;;;;;4994505;28;20519;-43
2023/05/30 11:51:06;;;;;;;223.90;15.55;;;;;;;;;;4993645;28;20039;-41
2023/05/30 11:53:34;;;;;;;95.40;9.27;;;;;;;;;;4992828;28;20034;-43
2023/05/30 11:56:01;;;;;;;99.57;7.70;;;;;;;;;;4994639;28;20026;-46
2023/05/30 11:58:28;;;;;;;77.95;5.70;;;;;;;;;;4994495;28;20030;-43
2023/05/30 12:00:56;;;;;;;48.08;4.63;;;;;;;;;;4993162;28;20062;-46
2023/05/30 12:03:23;;;;;;;36.42;4.00;;;;;;;;;;4993124;28;20062;-43
2023/05/30 12:05:50;;;;;;;66.18;7.00;;;;;;;;;;4994041;28;20117;-42
2023/05/30 12:08:20;;;;;;;69.85;7.57;;;;;;;;;;4994431;28;20101;-46
2023/05/30 12:10:50;;;;;;;80.53;7.35;;;;;;;;;;4993949;28;20164;-43
2023/05/30 12:13:20;;;;;;;66.50;7.85;;;;;;;;;;4992985;28;20034;-44
2023/05/30 12:15:47;;;;;;;63.25;7.65;;;;;;;;;;4994200;28;20034;-42
2023/05/30 12:18:17;;;;;;;61.58;7.90;;;;;;;;;;4994366;28;20515;-42
2023/05/30 12:20:45;;;;;;;68.53;7.50;;;;;;;;;;4994324;28;20049;-44
2023/05/30 12:23:12;;;;;;;71.40;8.20;;;;;;;;;;4994212;28;20022;-41
2023/05/30 12:25:39;;;;;;;57.75;7.32;;;;;;;;;;5007033;28;20034;-41
2023/05/30 12:28:07;;;;;;;57.03;7.03;;;;;;;;;;5013477;28;20387;-41
2023/05/30 12:30:37;;;;;;;57.10;6.85;;;;;;;;;;5013336;28;20042;-41
2023/05/30 12:33:17;;;;;;;72.35;8.43;;;;;;;;;;5012409;28;20053;-44
2023/05/30 12:35:47;;;;;;;62.30;7.55;;;;;;;;;;5011145;28;20040;-45
2023/05/30 12:38:19;;;;;;;63.72;7.22;;;;;;;;;;5012787;28;20030;-43
2023/05/30 12:40:50;;;;;;;57.77;7.63;;;;;;;;;;5012942;28;20025;-44
2023/05/30 12:43:17;;;;;;;50.10;7.40;;;;;;;;;;5010295;28;20476;-43
2023/05/30 12:45:45;;;;;;;56.90;7.43;;;;;;;;;;5012710;28;20531;-44
2023/05/30 12:48:12;;;;;;;58.33;6.88;;;;;;;;;;4995217;28;20065;-43
2023/05/30 12:50:40;;;;;;;42.22;6.10;;;;;;;;;;5012718;28;20033;-42
2023/05/30 12:53:07;;;;;;;49.75;4.95;;;;;;;;;;5012679;28;20048;-41
2023/05/30 12:55:34;;;;;;;34.15;4.93;;;;;;;;;;5013111;28;20092;-43
2023/05/30 12:58:01;;;;;;;28.75;4.00;;;;;;;;;;4995581;28;20125;-44
2023/05/30 13:00:28;;;;;;;24.65;3.92;;;;;;;;;;5013112;28;20293;-43
2023/05/30 13:02:55;;;;;;;26.50;3.80;;;;;;;;;;5013076;28;20369;-44
2023/05/30 13:05:22;;;;;;;24.00;4.22;;;;;;;;;;5013187;28;20022;-44
2023/05/30 13:07:49;;;;;;;27.35;4.43;;;;;;;;;;5009408;28;20097;-43
2023/05/30 13:10:16;;;;;;;33.58;4.43;;;;;;;;;;5001721;28;20026;-44
2023/05/30 13:12:43;;;;;;;33.63;4.05;;;;;;;;;;5003458;28;20029;-45
2023/05/30 13:15:10;;;;;;;23.40;4.00;;;;;;;;;;4995572;28;20038;-44
2023/05/30 13:17:37;;;;;;;30.05;4.00;;;;;;;;;;4998270;28;20098;-41
2023/05/30 13:20:05;;;;;;;23.30;3.60;;;;;;;;;;5003322;28;20133;-42
2023/05/30 13:22:32;;;;;;;26.00;3.50;;;;;;;;;;5007413;28;20029;-45
2023/05/30 13:24:59;;;;;;;22.80;3.83;;;;;;;;;;5012855;28;20029;-44
2023/05/30 13:27:26;;;;;;;34.97;4.90;;;;;;;;;;5012719;28;20032;-43
2023/05/30 13:29:53;;;;;;;40.85;5.05;;;;;;;;;;5012617;28;20017;-44
2023/05/30 13:32:20;;;;;;;29.42;4.28;;;;;;;;;;5012265;28;20041;-43
2023/05/30 13:34:47;;;;;;;28.60;3.63;;;;;;;;;;5011693;28;20538;-46
2023/05/30 13:37:15;;;;;;;26.92;3.88;;;;;;;;;;5001907;28;20022;-43
2023/05/30 13:39:42;;;;;;;22.48;3.85;;;;;;;;;;5001445;28;20460;-41
2023/05/30 13:42:09;;;;;;;24.90;4.10;;;;;;;;;;5000895;28;20030;-44
2023/05/30 13:44:36;;;;;;;39.60;4.85;;;;;;;;;;5006153;28;20116;-42
2023/05/30 13:47:03;;;;;;;19.33;3.47;;;;;;;;;;5011815;28;20022;-41
2023/05/30 13:49:35;;;;;;;28.20;3.75;;;;;;;;;;5011657;28;20561;-44
2023/05/30 13:52:03;;;;;;;22.95;3.30;;;;;;;;;;5011546;28;20121;-41
2023/05/30 13:54:31;;;;;;;27.13;4.20;;;;;;;;;;5011375;28;20467;-41
2023/05/30 13:56:58;;;;;;;25.00;3.67;;;;;;;;;;5011143;28;20148;-42
2023/05/30 13:59:25;;;;;;;32.08;4.28;;;;;;;;;;5011571;28;20479;-43
2023/05/30 14:01:52;;;;;;;29.90;4.10;;;;;;;;;;5001799;28;20038;-43
2023/05/30 14:04:20;;;;;;;42.40;4.53;;;;;;;;;;5000690;28;20034;-42
2023/05/30 14:06:50;;;;;;;42.65;5.18;;;;;;;;;;5002393;28;20022;-42
2023/05/30 14:09:21;;;;;;;42.53;5.18;;;;;;;;;;5002640;28;20432;-41
2023/05/30 14:11:51;;;;;;;46.70;5.22;;;;;;;;;;5002139;28;20132;-41
2023/05/30 14:14:18;;;;;;;47.13;4.90;;;;;;;;;;5002363;28;20030;-41
2023/05/30 14:16:45;;;;;;;33.33;4.28;;;;;;;;;;5000736;28;20014;-41
2023/05/30 14:19:12;;;;;;;35.65;5.45;;;;;;;;;;5001407;28;20112;-44
2023/05/30 14:21:40;;;;;;;43.42;4.97;;;;;;;;;;5002343;28;20034;-44
2023/05/30 14:24:07;;;;;;;31.58;4.95;;;;;;;;;;5000864;28;20057;-43
2023/05/30 14:26:34;;;;;;;37.30;4.60;;;;;;;;;;5001066;28;20033;-42
2023/05/30 14:29:03;;;;;;;36.40;4.97;;;;;;;;;;5002353;28;20046;-43
2023/05/30 14:31:30;;;;;;;36.58;4.88;;;;;;;;;;5000639;28;20046;-43
2023/05/30 14:33:58;;;;;;;35.28;4.68;;;;;;;;;;5000510;28;20388;-44